Lorenton, Pennsylvania
Current Conditions -  °F | °C
As of 11:35 PM on Saturday 22 Nov 2014 (Local Time) from KN38 Reporting Station
Light Rain Light Rain  
Wind Chill: 27°   Ceiling: 3400
Heat Index: 34°   Visibility: 4mi
Dew Point: 32°   Wind: 8mph
Humidity: 93%   Direction: 210°SSW
Pressure: 30.09"   Gusts: NA
Location:  41.533°N, 77.3132°W
Report Text: KN38 230435Z AUTO 21007KT 4SM -RA OVC034 01/M00 A3009 RMK AO2
Loading
Personal Weather Stations






























Interactive Weather Map New forecast layout! Learn more

10-Day Weather Forecast

Advertisements
Track Severe Weather on mobile